This is the latest recevied weather packets stored in our database for station/object VA7NEZ. If no packets are shown the sender has not sent any weather packets the latest 10 day(s).
| Time | Temp. | Humidity | Pressure | Rain* | Wind** | Luminosity | Snow |
|---|---|---|---|---|---|---|---|
| 1777663981 | 20° C | 35% | 1016.9 hPa | 0 mm | - | - | - |
| 1777662406 | 19.44° C | 37% | 1017.1 hPa | 0 mm | - | - | - |
| 1777661881 | 19.44° C | 36% | 1017.3 hPa | 0 mm | - | - | - |
| 1777661329 | 19.44° C | 38% | 1017.4 hPa | 0 mm | - | - | - |
| 1777660756 | 18.89° C | 40% | 1017.4 hPa | 0 mm | - | - | - |
| 1777660211 | 18.33° C | 39% | 1017.5 hPa | 0 mm | - | - | - |
| 1777659711 | 17.78° C | 40% | 1017.5 hPa | 0 mm | - | - | - |
| 1777659111 | 17.78° C | 40% | 1017.6 hPa | 0 mm | - | - | - |
| 1777658541 | 0° C | 100% | 1017.6 hPa | 0 mm | - | - | - |
| 1777658011 | 17.22° C | 41% | 1017.9 hPa | 0 mm | - | - | - |
| 1777657466 | 16.67° C | 43% | 1017.9 hPa | 0 mm | - | - | - |
| 1777656956 | 16.67° C | 47% | 1017.9 hPa | 0 mm | - | - | - |
| 1777656416 | 16.11° C | 50% | 1018 hPa | 0 mm | - | - | - |
| 1777655901 | 16.11° C | 41% | 1017.9 hPa | 0 mm | - | - | - |
| 1777655337 | 15.56° C | 44% | 1018 hPa | 0 mm | - | - | - |
| 1777654812 | 15° C | 47% | 1018 hPa | 0 mm | - | - | - |
| 1777653226 | 13.89° C | 51% | 1018.2 hPa | 0 mm | - | - | - |
| 1777652640 | 13.89° C | 51% | 1018.3 hPa | 0 mm | - | - | - |
| 1777651626 | 13.89° C | 51% | 1018.4 hPa | 0 mm | - | - | - |
| 1777651081 | 13.89° C | 50% | 1018.3 hPa | 0 mm | - | - | - |
| 1777650581 | 13.89° C | 55% | 1018.6 hPa | 0 mm | - | - | - |
| 1777650011 | 13.89° C | 56% | 1018.7 hPa | 0 mm | - | - | - |
| 1777649431 | 13.33° C | 55% | 1018.6 hPa | 0 mm | - | - | - |
| 1777648931 | 0° C | 100% | 1018.8 hPa | 0 mm | - | - | - |
| 1777648448 | 13.33° C | 56% | 1018.7 hPa | 0 mm | - | - | - |
* Rain latest hour (hover to see other rain measurements)
** Current wind speed in m/s (hover to see current wind gust speed)